Time;durP1;ratioP1;P1;durP2;ratioP2;P2;SDS_P1;SDS_P2;PMS_P1;PMS_P2;Temp;Humidity;BMP_temperature;BMP_pressure;BME280_temperature;BME280_humidity;BME280_pressure;Samples;Min_cycle;Max_cycle;Signal;HPM_P1;HPM_P2
2024/02/16 00:02:11;;;;;;;;;4.00;4.00;;;;;22.46;46.61;100646.53;6336322;22;45152;-74
2024/02/16 00:04:36;;;;;;;;;3.67;3.67;;;;;22.45;46.93;100653.69;6336533;22;45367;-74
2024/02/16 00:07:02;;;;;;;;;3.00;3.00;;;;;22.44;46.76;100640.59;6336704;22;45430;-74
2024/02/16 00:09:27;;;;;;;;;3.33;2.67;;;;;22.45;46.69;100643.06;6335635;22;46213;-74
2024/02/16 00:11:52;;;;;;;;;2.00;2.00;;;;;22.45;47.12;100651.03;6336319;22;45268;-74
2024/02/16 00:14:18;;;;;;;;;3.00;2.67;;;;;22.43;47.12;100644.28;6336708;22;45178;-74
2024/02/16 00:16:43;;;;;;;;;4.00;3.00;;;;;22.44;47.05;100646.72;6336124;22;45247;-74
2024/02/16 00:19:09;;;;;;;;;5.00;3.00;;;;;22.44;47.01;100652.03;6336367;22;45958;-74
2024/02/16 00:21:34;;;;;;;;;3.67;2.33;;;;;22.44;47.06;100656.50;6335906;22;54879;-74
2024/02/16 00:24:02;;;;;;;;;3.00;3.00;;;;;22.35;46.83;100643.34;6335995;22;48024;-74
2024/02/16 00:26:27;;;;;;;;;3.00;3.00;;;;;22.40;46.65;100648.91;6336289;22;45356;-74
2024/02/16 00:28:53;;;;;;;;;4.00;2.00;;;;;22.40;46.80;100648.13;6335774;22;53772;-74
2024/02/16 00:31:19;;;;;;;;;3.00;3.00;;;;;22.39;46.93;100655.25;6336355;22;50019;-74
2024/02/16 00:33:44;;;;;;;;;3.67;3.67;;;;;22.40;46.78;100666.69;6336202;22;45288;-74
2024/02/16 00:36:10;;;;;;;;;3.67;3.00;;;;;22.38;46.30;100661.53;6336146;22;45164;-74
2024/02/16 00:38:35;;;;;;;;;4.33;2.67;;;;;22.36;46.85;100660.91;6335794;22;45325;-74
2024/02/16 00:41:01;;;;;;;;;3.00;1.67;;;;;22.35;46.37;100661.91;6335965;22;45213;-74
2024/02/16 00:43:26;;;;;;;;;3.67;3.00;;;;;22.39;46.38;100667.69;6336069;22;45196;-74
2024/02/16 00:45:51;;;;;;;;;2.33;2.33;;;;;22.32;46.68;100659.66;6335952;22;52706;-75
2024/02/16 00:48:17;;;;;;;;;3.00;3.00;;;;;22.37;46.15;100675.81;6335547;22;62859;-74
2024/02/16 00:50:42;;;;;;;;;4.00;3.00;;;;;22.37;46.67;100673.19;6336622;22;45314;-74
2024/02/16 00:53:08;;;;;;;;;3.00;3.00;;;;;22.38;46.57;100673.97;6336204;22;45317;-74
2024/02/16 00:55:33;;;;;;;;;2.33;2.33;;;;;22.35;46.83;100672.50;6335676;22;49853;-74
2024/02/16 00:57:58;;;;;;;;;3.00;3.00;;;;;22.36;46.74;100668.03;6335759;22;59130;-74
2024/02/16 01:00:24;;;;;;;;;3.00;3.00;;;;;22.19;46.62;100649.72;6335859;22;45319;-73
2024/02/16 01:02:52;;;;;;;;;4.00;2.00;;;;;22.38;46.25;100671.31;6336357;22;46530;-74
2024/02/16 01:05:17;;;;;;;;;4.67;4.00;;;;;22.37;46.39;100680.28;6336254;22;45460;-74
2024/02/16 01:07:43;;;;;;;;;4.33;3.00;;;;;22.37;46.70;100681.13;6335593;22;45722;-74
2024/02/16 01:10:09;;;;;;;;;2.00;2.00;;;;;22.36;46.21;100679.47;6335950;22;45319;-73
2024/02/16 01:12:34;;;;;;;;;5.67;3.00;;;;;22.36;46.12;100684.78;6335144;22;45234;-74
2024/02/16 01:15:00;;;;;;;;;4.67;3.00;;;;;22.36;46.54;100690.06;6336314;22;45411;-74
2024/02/16 01:17:25;;;;;;;;;7.00;4.00;;;;;22.36;46.69;100684.78;6335447;22;46928;-74
2024/02/16 01:19:51;;;;;;;;;2.33;2.33;;;;;22.37;46.41;100677.66;6336093;22;45258;-74
2024/02/16 01:22:16;;;;;;;;;3.33;3.33;;;;;22.32;46.09;100670.25;6335636;22;45305;-74
2024/02/16 01:24:41;;;;;;;;;3.00;3.00;;;;;22.26;46.46;100666.53;6336108;22;45415;-74
2024/02/16 01:27:07;;;;;;;;;3.00;3.00;;;;;22.37;46.10;100690.91;6335890;22;46304;-73
2024/02/16 01:29:32;;;;;;;;;4.00;4.00;;;;;22.37;46.09;100714.75;6335799;22;53274;-74
2024/02/16 01:31:58;;;;;;;;;3.33;2.67;;;;;22.37;46.01;100718.22;6335989;22;45421;-74
2024/02/16 01:34:23;;;;;;;;;3.67;3.67;;;;;22.37;46.64;100714.75;6335807;22;45447;-71
2024/02/16 01:36:49;;;;;;;;;3.33;3.33;;;;;22.37;45.90;100717.41;6335614;22;46031;-74
2024/02/16 01:39:14;;;;;;;;;5.00;3.00;;;;;22.29;46.56;100705.91;6335505;22;45270;-74
2024/02/16 01:41:39;;;;;;;;;3.33;3.33;;;;;22.36;46.56;100724.53;6335165;22;63365;-74
2024/02/16 01:44:05;;;;;;;;;4.00;2.00;;;;;22.34;46.27;100715.13;6335765;22;45337;-74
2024/02/16 01:46:31;;;;;;;;;7.33;4.00;;;;;22.38;46.09;100719.03;6335970;22;45783;-74
2024/02/16 01:48:56;;;;;;;;;4.33;4.33;;;;;22.36;46.74;100719.22;6335995;22;45331;-73
2024/02/16 01:51:24;;;;;;;;;5.67;5.33;;;;;22.37;46.11;100720.06;6335208;22;45190;-74
2024/02/16 01:53:50;;;;;;;;;4.00;3.00;;;;;22.38;46.57;100727.00;6336160;22;45645;-74
2024/02/16 01:56:15;;;;;;;;;2.33;2.33;;;;;22.31;46.61;100713.66;6335352;22;46066;-74
2024/02/16 01:58:41;;;;;;;;;3.67;2.67;;;;;22.37;46.17;100715.59;6335521;22;45170;-73
2024/02/16 02:01:06;;;;;;;;;4.00;4.00;;;;;22.36;46.31;100719.22;6335673;22;45201;-74
2024/02/16 02:03:33;;;;;;;;;3.33;3.00;;;;;22.35;46.68;100722.88;6336134;22;45241;-74
2024/02/16 02:05:58;;;;;;;;;3.00;3.00;;;;;22.28;46.36;100717.50;6335054;22;46159;-74
2024/02/16 02:08:26;;;;;;;;;5.33;3.00;;;;;22.30;46.80;100730.59;6335357;22;50802;-74
2024/02/16 02:10:51;;;;;;;;;3.67;3.67;;;;;22.37;46.20;100750.03;6335854;22;45266;-74
2024/02/16 02:13:16;;;;;;;;;1.67;1.67;;;;;22.36;46.15;100751.03;6335337;22;52574;-74
2024/02/16 02:15:42;;;;;;;;;4.00;4.00;;;;;22.26;46.70;100727.47;6333736;22;46289;-73
2024/02/16 02:18:07;;;;;;;;;6.00;4.00;;;;;22.18;46.29;100725.75;6335111;22;48536;-74
2024/02/16 02:20:33;;;;;;;;;5.00;4.00;;;;;22.36;46.64;100742.25;6334994;22;45277;-74
2024/02/16 02:22:59;;;;;;;;;3.00;3.00;;;;;22.22;46.29;100720.91;6335415;22;45204;-74
2024/02/16 02:25:26;;;;;;;;;4.00;3.00;;;;;22.35;46.14;100740.63;6336771;22;45849;-74
2024/02/16 02:27:52;;;;;;;;;3.67;2.67;;;;;22.35;46.50;100732.69;6336974;22;45347;-74
2024/02/16 02:30:17;;;;;;;;;6.00;3.00;;;;;22.38;46.00;100740.25;6336815;22;45267;-73
2024/02/16 02:32:42;;;;;;;;;5.33;3.67;;;;;22.36;46.75;100739.59;6336710;22;55930;-72
2024/02/16 02:35:08;;;;;;;;;3.00;2.33;;;;;22.27;46.62;100723.00;6336660;22;45312;-73
2024/02/16 02:37:34;;;;;;;;;3.00;3.00;;;;;22.35;46.33;100746.72;6336861;22;45585;-74
2024/02/16 02:39:59;;;;;;;;;4.33;4.00;;;;;22.38;46.68;100756.97;6336701;22;45275;-74
2024/02/16 02:42:24;;;;;;;;;3.00;3.00;;;;;22.36;46.62;100760.81;6336679;22;52311;-74
2024/02/16 02:44:50;;;;;;;;;2.33;2.00;;;;;22.37;46.05;100760.66;6336599;22;54763;-74
2024/02/16 02:47:19;;;;;;;;;3.00;2.00;;;;;22.37;46.23;100768.59;6336175;22;45268;-74
2024/02/16 02:49:45;;;;;;;;;4.00;3.00;;;;;22.38;46.51;100772.03;6336590;22;45213;-73
2024/02/16 02:52:10;;;;;;;;;3.67;3.00;;;;;22.36;46.17;100766.94;6337046;22;45396;-74
2024/02/16 02:54:36;;;;;;;;;4.00;4.00;;;;;22.36;46.66;100761.63;6308373;22;47340;-73
2024/02/16 02:57:02;;;;;;;;;3.33;3.33;;;;;22.35;46.30;100754.69;6336477;22;45332;-74
2024/02/16 02:59:27;;;;;;;;;5.00;4.00;;;;;22.26;46.62;100756.63;6336759;22;45349;-74
2024/02/16 03:01:53;;;;;;;;;8.33;3.00;;;;;22.34;46.04;100770.78;6336024;22;45321;-74
2024/02/16 03:04:18;;;;;;;;;4.00;3.33;;;;;22.33;46.57;100769.16;6336721;22;45344;-73
2024/02/16 03:06:44;;;;;;;;;8.33;3.67;;;;;22.35;46.01;100775.88;6336962;22;45324;-74
2024/02/16 03:09:11;;;;;;;;;3.00;3.00;;;;;22.35;45.95;100770.59;6336519;22;45287;-74
2024/02/16 03:11:36;;;;;;;;;4.67;4.67;;;;;22.36;45.99;100780.19;6336925;22;45304;-74
2024/02/16 03:14:03;;;;;;;;;4.00;4.00;;;;;22.34;46.03;100771.63;6336242;22;45956;-74
2024/02/16 03:16:28;;;;;;;;;3.67;3.00;;;;;22.36;46.50;100780.19;6307978;22;45312;-74
2024/02/16 03:18:54;;;;;;;;;4.33;3.00;;;;;22.35;45.95;100775.88;6308273;22;45505;-74
2024/02/16 03:21:20;;;;;;;;;3.00;3.00;;;;;22.36;46.29;100769.59;6336377;22;45312;-74
2024/02/16 03:23:45;;;;;;;;;3.00;2.67;;;;;22.36;46.29;100774.06;6336113;22;46214;-73
2024/02/16 03:26:15;;;;;;;;;4.33;3.67;;;;;22.34;46.18;100768.97;6336880;22;45305;-72
2024/02/16 03:28:40;;;;;;;;;5.33;3.67;;;;;22.36;46.06;100760.81;6308511;22;45375;-74
2024/02/16 03:31:07;;;;;;;;;4.00;4.00;;;;;22.34;45.95;100754.88;6336154;22;45701;-74
2024/02/16 03:33:33;;;;;;;;;4.00;3.00;;;;;22.36;45.87;100766.94;6336299;22;46118;-73
2024/02/16 03:35:59;;;;;;;;;5.00;3.67;;;;;22.37;45.93;100770.41;6336050;22;45159;-73
2024/02/16 03:38:25;;;;;;;;;4.00;3.67;;;;;22.37;46.13;100778.38;6336351;22;45292;-73
2024/02/16 03:40:50;;;;;;;;;4.00;4.00;;;;;22.35;46.32;100783.03;6335984;22;54847;-74
2024/02/16 03:43:15;;;;;;;;;4.00;3.33;;;;;22.32;46.01;100786.88;6336114;22;46254;-74
2024/02/16 03:45:41;;;;;;;;;4.00;3.00;;;;;22.36;46.27;100793.44;6335763;22;45293;-73
2024/02/16 03:48:06;;;;;;;;;3.67;3.33;;;;;22.36;46.31;100790.78;6336952;22;45197;-74
2024/02/16 03:50:32;;;;;;;;;1.67;1.67;;;;;22.35;46.40;100785.69;6308424;22;45438;-74
2024/02/16 03:52:57;;;;;;;;;2.67;2.00;;;;;22.37;46.21;100796.94;6336755;22;46458;-74
2024/02/16 03:55:22;;;;;;;;;3.00;3.00;;;;;22.36;45.96;100804.06;6336347;22;45294;-74
2024/02/16 03:57:48;;;;;;;;;3.00;3.00;;;;;22.37;46.25;100812.84;6336818;22;45244;-74
2024/02/16 04:00:14;;;;;;;;;2.67;2.00;;;;;22.37;46.40;100815.47;6335401;22;57125;-72
2024/02/16 04:02:39;;;;;;;;;3.67;3.67;;;;;22.36;45.93;100814.66;6336116;22;46919;-74
2024/02/16 04:05:05;;;;;;;;;3.67;2.33;;;;;22.37;45.87;100818.13;6336511;22;45343;-74
2024/02/16 04:07:30;;;;;;;;;3.00;3.00;;;;;22.37;45.85;100818.13;6336730;22;45345;-74
2024/02/16 04:09:56;;;;;;;;;3.00;2.67;;;;;22.37;46.49;100829.56;6308322;22;45423;-73
2024/02/16 04:12:21;;;;;;;;;3.00;2.67;;;;;22.35;45.82;100830.75;6336110;22;45989;-74
2024/02/16 04:14:47;;;;;;;;;2.33;2.33;;;;;22.36;45.81;100827.09;6336165;22;45331;-74
2024/02/16 04:17:12;;;;;;;;;2.67;2.33;;;;;22.38;46.13;100838.31;6336373;22;45268;-73
2024/02/16 04:19:37;;;;;;;;;3.67;3.00;;;;;22.37;45.87;100840.16;6335812;22;53398;-73
2024/02/16 04:22:03;;;;;;;;;4.00;2.00;;;;;22.35;46.14;100844.00;6336521;22;45197;-74
2024/02/16 04:24:29;;;;;;;;;3.33;3.00;;;;;22.37;46.25;100858.72;6336179;22;45237;-73
2024/02/16 04:26:54;;;;;;;;;4.00;4.00;;;;;22.38;46.18;100852.41;6336031;22;45293;-74
2024/02/16 04:29:19;;;;;;;;;4.00;4.00;;;;;22.31;45.92;100842.72;6336195;22;45504;-74
2024/02/16 04:31:46;;;;;;;;;4.00;3.67;;;;;22.35;46.25;100852.75;6335912;22;46979;-74
2024/02/16 04:34:12;;;;;;;;;2.00;2.00;;;;;22.37;46.32;100849.94;6336202;22;45221;-74
2024/02/16 04:36:37;;;;;;;;;2.33;2.33;;;;;22.37;46.29;100863.19;6336583;22;45272;-74
2024/02/16 04:39:03;;;;;;;;;6.00;3.67;;;;;22.36;46.49;100867.66;6336365;22;45267;-73
2024/02/16 04:41:28;;;;;;;;;2.00;2.00;;;;;22.36;46.40;100870.31;6335762;22;46965;-74
2024/02/16 04:43:53;;;;;;;;;5.67;4.00;;;;;22.38;46.17;100886.03;6335907;22;45307;-74
2024/02/16 04:46:19;;;;;;;;;1.67;1.67;;;;;22.38;46.13;100878.09;6336264;22;45400;-74
2024/02/16 04:48:44;;;;;;;;;2.67;2.00;;;;;22.37;46.49;100885.22;6336630;22;45327;-73
2024/02/16 04:51:13;;;;;;;;;3.00;2.00;;;;;22.30;46.00;100876.38;6336315;22;45831;-73
2024/02/16 04:53:38;;;;;;;;;4.00;3.00;;;;;22.32;46.06;100878.81;6335873;22;45296;-74
2024/02/16 04:56:04;;;;;;;;;2.67;2.00;;;;;22.32;46.28;100878.81;6336528;22;45501;-73
2024/02/16 04:58:30;;;;;;;;;4.33;4.33;;;;;22.36;45.92;100896.81;6335604;22;45229;-73
2024/02/16 05:00:56;;;;;;;;;5.67;3.67;;;;;22.25;46.31;100879.53;6335735;22;46223;-74
2024/02/16 05:03:21;;;;;;;;;3.00;3.00;;;;;22.37;46.52;100895.00;6336459;22;45208;-73
2024/02/16 05:05:46;;;;;;;;;5.00;4.00;;;;;22.27;46.35;100887.31;6335769;22;53710;-73
2024/02/16 05:08:12;;;;;;;;;3.67;3.67;;;;;22.36;45.99;100904.78;6336045;22;45328;-74
2024/02/16 05:10:37;;;;;;;;;2.00;2.00;;;;;22.32;45.97;100900.84;6335228;22;45648;-74
2024/02/16 05:13:03;;;;;;;;;3.00;3.00;;;;;22.36;45.87;100923.34;6335969;22;45356;-73
2024/02/16 05:15:29;;;;;;;;;2.67;1.67;;;;;22.36;46.57;100922.50;6336491;22;45280;-74
2024/02/16 05:17:54;;;;;;;;;3.00;3.00;;;;;22.34;46.00;100920.06;6335843;22;45402;-74
2024/02/16 05:20:19;;;;;;;;;4.00;4.00;;;;;22.35;46.03;100921.69;6336103;22;45307;-74
2024/02/16 05:22:46;;;;;;;;;3.33;2.67;;;;;22.35;46.19;100936.78;6335765;22;45277;-73
2024/02/16 05:25:18;;;;;;;;;4.00;3.33;;;;;22.35;46.21;100937.59;6336007;22;45395;-74
2024/02/16 05:27:45;;;;;;;;;5.00;3.00;;;;;22.36;46.15;100939.25;6334311;22;45377;-74
2024/02/16 05:30:12;;;;;;;;;3.67;2.67;;;;;22.28;46.50;100918.09;6336030;22;46156;-74
2024/02/16 05:32:38;;;;;;;;;2.00;2.00;;;;;22.36;45.86;100930.47;6335451;22;45165;-74
2024/02/16 05:35:11;;;;;;;;;3.00;3.00;;;;;22.36;45.85;100938.41;6336207;22;45157;-74
2024/02/16 05:37:51;;;;;;;;;3.00;3.00;;;;;22.35;46.13;100939.44;6335760;22;45264;-73
2024/02/16 05:40:28;;;;;;;;;4.00;4.00;;;;;22.36;46.38;100947.19;6335206;22;47019;-73
2024/02/16 05:42:57;;;;;;;;;2.00;2.00;;;;;22.32;46.01;100942.44;6335036;22;45284;-74
2024/02/16 05:45:23;;;;;;;;;4.00;4.00;;;;;22.36;45.96;100957.78;6335699;22;45157;-74
2024/02/16 05:47:49;;;;;;;;;3.00;3.00;;;;;22.36;46.18;100944.53;6336144;22;45095;-74
2024/02/16 05:50:15;;;;;;;;;3.33;3.00;;;;;22.36;46.39;100955.16;6335800;22;45325;-74
2024/02/16 05:52:41;;;;;;;;;6.00;4.00;;;;;22.31;45.99;100957.50;6335814;22;45834;-74
2024/02/16 05:55:08;;;;;;;;;4.67;3.33;;;;;22.37;46.32;100963.94;6335819;22;45312;-74
2024/02/16 05:57:35;;;;;;;;;2.00;2.00;;;;;22.31;45.99;100954.03;6307147;22;45474;-74
2024/02/16 06:00:01;;;;;;;;;4.00;4.00;;;;;22.27;45.88;100946.47;6336180;22;46093;-74
2024/02/16 06:02:27;;;;;;;;;4.00;2.67;;;;;22.34;46.18;100964.28;6337022;22;45302;-74
2024/02/16 06:04:53;;;;;;;;;2.00;2.00;;;;;22.35;46.50;100965.94;6336786;22;45406;-74
2024/02/16 06:07:18;;;;;;;;;2.00;2.00;;;;;22.37;46.46;100977.19;6337433;22;45225;-75
2024/02/16 06:09:43;;;;;;;;;4.00;3.00;;;;;22.27;46.32;100961.53;6336954;22;45264;-74
2024/02/16 06:12:09;;;;;;;;;3.00;3.00;;;;;22.37;46.00;100987.78;6336054;22;48509;-74
2024/02/16 06:14:36;;;;;;;;;4.00;4.00;;;;;22.36;45.89;100996.72;6337012;22;45218;-74
2024/02/16 06:17:02;;;;;;;;;4.00;4.00;;;;;22.37;46.50;101001.03;6336756;22;45220;-74
2024/02/16 06:19:28;;;;;;;;;2.67;2.67;;;;;22.35;46.35;101005.69;6335759;22;46099;-74
2024/02/16 06:21:54;;;;;;;;;4.00;4.00;;;;;22.37;46.00;101009.81;6337046;22;45356;-74
2024/02/16 06:24:20;;;;;;;;;5.00;4.00;;;;;22.37;45.94;101011.63;6336845;22;45303;-75
2024/02/16 06:26:46;;;;;;;;;4.00;4.00;;;;;22.31;45.98;101007.88;6336789;22;45418;-74
2024/02/16 06:29:11;;;;;;;;;4.00;3.00;;;;;22.36;46.57;101024.06;6336263;22;46875;-74
2024/02/16 06:31:37;;;;;;;;;4.33;3.33;;;;;22.37;46.13;101028.38;6336573;22;45281;-74
2024/02/16 06:34:03;;;;;;;;;3.00;3.00;;;;;22.36;46.07;101029.38;6336689;22;45258;-74
2024/02/16 06:36:28;;;;;;;;;5.33;2.33;;;;;22.37;46.08;101038.97;6308623;22;45513;-74
2024/02/16 06:38:53;;;;;;;;;2.00;2.00;;;;;22.38;46.11;101050.38;6336418;22;47142;-74
2024/02/16 06:41:18;;;;;;;;;4.00;2.00;;;;;22.36;46.60;101044.44;6336401;22;46313;-74
2024/02/16 06:43:44;;;;;;;;;4.00;4.00;;;;;22.38;46.11;101053.03;6336600;22;51929;-74
2024/02/16 06:46:09;;;;;;;;;3.33;2.00;;;;;22.29;46.62;101047.81;6336680;22;45427;-75
2024/02/16 06:48:35;;;;;;;;;2.33;2.33;;;;;22.38;46.42;101061.81;6336377;22;46014;-74
2024/02/16 06:51:00;;;;;;;;;4.00;2.67;;;;;22.37;46.21;101068.16;6336542;22;52828;-74
2024/02/16 06:53:25;;;;;;;;;4.67;4.00;;;;;22.37;46.07;101073.44;6336972;22;45107;-74
2024/02/16 06:55:51;;;;;;;;;5.00;4.00;;;;;22.38;46.08;101074.25;6336418;22;45131;-73
2024/02/16 06:58:16;;;;;;;;;3.00;3.00;;;;;22.37;46.60;101086.69;6325835;22;46803;-75
2024/02/16 07:00:42;;;;;;;;;4.00;2.00;;;;;22.39;45.92;101092.63;6302385;22;45679;-74
2024/02/16 07:03:07;;;;;;;;;3.00;3.00;;;;;22.38;46.61;101087.50;6333149;22;45288;-73
2024/02/16 07:05:33;;;;;;;;;5.00;3.00;;;;;22.39;46.21;101113.03;6332288;22;45503;-74
2024/02/16 07:07:58;;;;;;;;;6.00;2.33;;;;;22.26;46.13;101100.34;6332593;22;45669;-74
2024/02/16 07:10:24;;;;;;;;;4.00;4.00;;;;;22.31;46.14;101113.06;6332116;22;45396;-74
2024/02/16 07:12:49;;;;;;;;;4.33;4.33;;;;;22.39;46.17;101127.09;6332489;22;45335;-74
2024/02/16 07:15:15;;;;;;;;;3.00;2.00;;;;;22.20;46.59;101109.00;6332785;22;45356;-74
2024/02/16 07:17:40;;;;;;;;;2.33;2.33;;;;;22.38;46.39;101144.00;6333005;22;45403;-74
2024/02/16 07:20:06;;;;;;;;;4.00;3.00;;;;;22.40;46.20;101147.28;6332183;22;57554;-74
2024/02/16 07:22:32;;;;;;;;;5.33;3.33;;;;;22.39;46.16;101156.28;6332988;22;45368;-74
2024/02/16 07:24:59;;;;;;;;;2.33;2.00;;;;;22.40;46.14;101171.16;6331195;22;45493;-74
2024/02/16 07:27:25;;;;;;;;;2.00;2.00;;;;;22.32;46.32;101151.84;6332077;22;46954;-74
2024/02/16 07:29:50;;;;;;;;;4.67;3.67;;;;;22.40;46.56;101173.00;6331227;22;45251;-74
2024/02/16 07:32:16;;;;;;;;;3.67;3.00;;;;;22.39;46.13;101182.78;6332693;22;48723;-74
2024/02/16 07:34:45;;;;;;;;;4.67;4.00;;;;;22.40;46.12;101187.06;6332829;22;45352;-74
2024/02/16 07:37:11;;;;;;;;;3.33;3.33;;;;;22.39;46.02;101195.19;6332882;22;46168;-74
2024/02/16 07:39:36;;;;;;;;;2.67;2.00;;;;;22.35;46.13;101196.56;6332391;22;45323;-74
2024/02/16 07:42:01;;;;;;;;;2.67;2.67;;;;;22.40;46.36;101215.41;6332039;22;45232;-74
2024/02/16 07:44:28;;;;;;;;;2.67;2.67;;;;;22.39;46.52;101225.19;6332737;22;45383;-74
2024/02/16 07:46:53;;;;;;;;;3.33;3.33;;;;;22.40;46.55;101234.78;6330938;22;47078;-75
2024/02/16 07:49:19;;;;;;;;;5.33;4.00;;;;;22.40;46.17;101233.97;6332578;22;45363;-75
2024/02/16 07:51:44;;;;;;;;;5.67;3.33;;;;;22.30;46.59;101228.91;6332274;22;45362;-76
2024/02/16 07:54:09;;;;;;;;;3.00;3.00;;;;;22.36;46.86;101232.66;6331114;22;52529;-74
2024/02/16 07:56:35;;;;;;;;;3.00;3.00;;;;;22.43;46.84;101248.72;6332441;22;45257;-74
2024/02/16 07:59:00;;;;;;;;;3.33;3.33;;;;;22.43;46.76;101252.16;6331853;22;45186;-74
2024/02/16 08:01:26;;;;;;;;;5.33;4.00;;;;;22.44;46.55;101266.25;6331986;22;45302;-75
2024/02/16 08:03:51;;;;;;;;;3.67;3.67;;;;;22.37;46.72;101258.19;6332476;22;45232;-73
2024/02/16 08:06:20;;;;;;;;;5.00;4.00;;;;;22.37;47.22;101272.25;6331062;22;46041;-74
2024/02/16 08:08:47;;;;;;;;;3.00;3.00;;;;;22.39;47.27;101277.38;6327600;22;45344;-74
2024/02/16 08:11:12;;;;;;;;;4.67;3.33;;;;;22.47;47.38;101295.09;6331494;22;45391;-75
2024/02/16 08:13:37;;;;;;;;;3.00;3.00;;;;;22.46;46.99;101299.56;6332242;22;45417;-73
2024/02/16 08:16:06;;;;;;;;;4.00;2.67;;;;;22.48;47.20;101312.66;6332014;22;47014;-74
2024/02/16 08:18:32;;;;;;;;;5.00;5.00;;;;;22.45;47.34;101305.03;6332126;22;45573;-74
2024/02/16 08:20:58;;;;;;;;;4.67;4.00;;;;;22.46;47.25;101307.50;6331211;22;45668;-74
2024/02/16 08:23:23;;;;;;;;;5.00;3.00;;;;;22.44;47.24;101312.16;6332547;22;45810;-75
2024/02/16 08:25:48;;;;;;;;;3.33;3.33;;;;;22.42;46.69;101319.47;6331651;22;58798;-73
2024/02/16 08:28:14;;;;;;;;;3.67;3.00;;;;;22.45;46.56;101324.44;6332831;22;45356;-74
2024/02/16 08:30:41;;;;;;;;;4.33;3.33;;;;;22.47;46.64;101334.84;6304854;22;45721;-74
2024/02/16 08:33:07;;;;;;;;;5.00;3.67;;;;;22.48;46.52;101347.13;6304088;22;45349;-73
2024/02/16 08:35:32;;;;;;;;;3.33;3.00;;;;;22.47;46.65;101340.16;6303122;22;47290;-74
2024/02/16 08:37:57;;;;;;;;;4.00;4.00;;;;;22.38;47.04;101326.09;6330426;22;45477;-74
2024/02/16 08:40:23;;;;;;;;;5.00;2.00;;;;;22.46;46.92;101335.84;6331963;22;57720;-74
2024/02/16 08:42:49;;;;;;;;;4.00;4.00;;;;;22.38;46.47;101345.47;6331663;22;45427;-74
2024/02/16 08:45:17;;;;;;;;;3.00;3.00;;;;;22.42;46.88;101351.28;6331993;22;45330;-75
2024/02/16 08:47:43;;;;;;;;;3.67;3.67;;;;;22.47;46.50;101366.69;6332214;22;45248;-75
2024/02/16 08:50:09;;;;;;;;;4.00;3.00;;;;;22.37;46.54;101357.09;6331972;22;45355;-74
2024/02/16 08:52:34;;;;;;;;;1.33;1.33;;;;;22.44;46.62;101372.31;6332724;22;45751;-74
2024/02/16 08:55:00;;;;;;;;;2.00;2.00;;;;;22.43;46.90;101374.13;6331582;22;46831;-74
2024/02/16 08:57:25;;;;;;;;;3.00;3.00;;;;;22.47;46.68;101388.72;6332430;22;45335;-74
2024/02/16 08:59:50;;;;;;;;;3.00;3.00;;;;;22.44;47.03;101383.75;6331919;22;45434;-74
2024/02/16 09:02:16;;;;;;;;;2.67;2.67;;;;;22.46;46.79;101402.97;6332849;22;45410;-74
2024/02/16 09:04:41;;;;;;;;;2.33;2.33;;;;;22.40;47.09;101398.34;6331780;22;62570;-73
2024/02/16 09:07:06;;;;;;;;;3.67;3.00;;;;;22.47;46.99;101409.09;6331960;22;45347;-74
2024/02/16 09:09:33;;;;;;;;;2.67;2.33;;;;;22.45;46.38;101419.06;6331427;22;45774;-74
2024/02/16 09:11:58;;;;;;;;;3.00;2.00;;;;;22.46;46.81;101428.66;6331650;22;45317;-75
2024/02/16 09:14:24;;;;;;;;;5.33;2.67;;;;;22.44;46.66;101428.81;6332140;22;46009;-74
2024/02/16 09:16:52;;;;;;;;;2.00;2.00;;;;;22.39;46.81;101425.84;6332210;22;45350;-75
2024/02/16 09:19:19;;;;;;;;;2.00;2.00;;;;;22.22;46.88;101404.69;6331049;22;45523;-76
2024/02/16 09:21:45;;;;;;;;;3.67;2.67;;;;;22.44;46.55;101449.19;6331458;22;45306;-75
2024/02/16 09:24:14;;;;;;;;;4.67;3.33;;;;;22.42;46.59;101460.00;6332434;22;45350;-74
2024/02/16 09:26:39;;;;;;;;;2.33;2.00;;;;;22.40;46.69;101446.88;6332704;22;45379;-74
2024/02/16 09:29:04;;;;;;;;;3.67;3.67;;;;;22.44;46.41;101465.94;6331707;22;45145;-74
2024/02/16 09:31:30;;;;;;;;;2.67;2.67;;;;;22.45;46.74;101472.09;6331862;22;51957;-74
2024/02/16 09:33:55;;;;;;;;;3.67;2.00;;;;;22.46;46.43;101473.72;6329959;22;60696;-74
2024/02/16 09:36:20;;;;;;;;;2.00;2.00;;;;;22.46;46.47;101482.50;6331730;22;45304;-75
2024/02/16 09:38:46;;;;;;;;;3.00;2.00;;;;;22.40;46.22;101473.41;6331070;22;45309;-75
2024/02/16 09:41:13;;;;;;;;;3.00;3.00;;;;;22.43;46.36;101474.88;6332255;22;45304;-75
2024/02/16 09:43:39;;;;;;;;;4.00;3.00;;;;;22.46;46.71;101485.16;6331892;22;46189;-75
2024/02/16 09:46:05;;;;;;;;;3.00;3.00;;;;;22.44;46.17;101488.97;6331166;22;45399;-74
2024/02/16 09:48:30;;;;;;;;;4.00;2.00;;;;;22.41;46.72;101487.47;6331227;22;45256;-74
2024/02/16 09:50:58;;;;;;;;;2.00;2.00;;;;;22.48;46.39;101500.91;6331469;22;45390;-72
2024/02/16 09:53:26;;;;;;;;;4.00;2.67;;;;;22.45;46.35;101503.91;6332012;22;45238;-74
2024/02/16 09:55:52;;;;;;;;;3.00;2.00;;;;;22.38;46.15;101493.13;6331179;22;45241;-74
2024/02/16 09:58:18;;;;;;;;;2.33;2.33;;;;;22.48;46.73;101516.81;6331738;22;45346;-75
2024/02/16 10:01:02;;;;;;;;;2.00;2.00;;;;;22.47;46.59;101523.94;6331487;22;45304;-75
2024/02/16 10:03:29;;;;;;;;;3.00;3.00;;;;;22.48;46.33;101527.44;6331196;22;46029;-74
2024/02/16 10:06:08;;;;;;;;;2.00;2.00;;;;;22.47;46.29;101531.06;6331493;22;45445;-74
2024/02/16 10:08:35;;;;;;;;;4.67;2.67;;;;;22.48;46.44;101535.38;6332133;22;45249;-74
2024/02/16 10:11:02;;;;;;;;;2.00;2.00;;;;;22.38;46.25;101523.13;6329811;22;45531;-74
2024/02/16 10:13:28;;;;;;;;;5.00;3.33;;;;;22.49;46.19;101551.13;6331351;22;45310;-74
2024/02/16 10:16:04;;;;;;;;;1.67;1.67;;;;;22.49;46.58;101552.94;6321866;22;45646;-74
2024/02/16 10:18:29;;;;;;;;;2.33;2.33;;;;;22.49;46.02;101548.47;6316307;22;45694;-74
2024/02/16 10:20:54;;;;;;;;;3.33;3.00;;;;;22.50;46.39;101551.97;6315299;22;46256;-75
2024/02/16 10:23:20;;;;;;;;;2.67;1.67;;;;;22.50;46.32;101559.91;6316401;22;46247;-72
2024/02/16 10:25:46;;;;;;;;;1.67;1.67;;;;;22.49;46.00;101564.38;6315638;22;45717;-75
2024/02/16 10:28:14;;;;;;;;;2.33;2.33;;;;;22.51;46.24;101559.75;6317214;22;45917;-75
2024/02/16 10:30:42;;;;;;;;;2.00;2.00;;;;;22.51;46.14;101562.38;6316200;22;45548;-74
2024/02/16 10:33:08;;;;;;;;;4.00;2.00;;;;;22.51;46.44;101572.16;6315780;22;46035;-75
2024/02/16 10:35:37;;;;;;;;;2.00;2.00;;;;;22.52;46.35;101579.97;6315773;22;45673;-74
2024/02/16 10:38:06;;;;;;;;;3.00;3.00;;;;;22.53;46.59;101596.72;6315732;22;45380;-75
2024/02/16 10:40:37;;;;;;;;;3.00;2.00;;;;;22.52;46.62;101609.13;6316374;22;45557;-74
2024/02/16 10:43:07;;;;;;;;;3.67;2.00;;;;;22.52;45.94;101603.00;6315388;22;45626;-74
2024/02/16 10:45:35;;;;;;;;;2.00;2.00;;;;;22.51;46.31;101601.34;6316656;22;45374;-74
2024/02/16 10:48:00;;;;;;;;;1.33;1.33;;;;;22.45;46.18;101599.34;6316564;22;45442;-75
2024/02/16 10:50:26;;;;;;;;;3.67;2.00;;;;;22.53;46.24;101607.31;6320730;22;45355;-74
2024/02/16 10:52:56;;;;;;;;;2.33;2.33;;;;;22.52;45.94;101613.59;6331509;22;45990;-74
2024/02/16 10:55:23;;;;;;;;;2.00;1.67;;;;;22.52;46.50;101625.06;6332175;22;45579;-74
2024/02/16 10:57:49;;;;;;;;;2.00;1.33;;;;;22.52;46.21;101630.34;6331189;22;45333;-74
2024/02/16 11:00:17;;;;;;;;;3.00;3.00;;;;;22.52;46.09;101633.00;6332663;22;45451;-74
2024/02/16 11:03:02;;;;;;;;;3.00;3.00;;;;;22.52;45.74;101645.44;6332194;22;46268;-75
2024/02/16 11:05:34;;;;;;;;;2.00;2.00;;;;;22.54;46.28;101647.91;6332497;22;45616;-74
2024/02/16 11:08:13;;;;;;;;;2.00;2.00;;;;;22.54;45.85;101650.56;6331686;22;45682;-75
2024/02/16 11:10:38;;;;;;;;;3.00;2.00;;;;;22.54;46.19;101664.66;6332619;22;45456;-74
2024/02/16 11:13:04;;;;;;;;;3.00;1.00;;;;;22.50;46.22;101652.72;6332196;22;50737;-74
2024/02/16 11:15:34;;;;;;;;;2.67;2.33;;;;;22.54;46.08;101658.50;6331946;22;45335;-74
2024/02/16 11:18:03;;;;;;;;;3.00;2.00;;;;;22.54;45.96;101662.00;6331540;22;45422;-74
2024/02/16 11:20:37;;;;;;;;;2.00;2.00;;;;;22.56;46.04;101670.63;6303950;22;45482;-74